Time;durP1;ratioP1;P1;durP2;ratioP2;P2;SDS_P1;SDS_P2;PMS_P1;PMS_P2;Temp;Humidity;BMP_temperature;BMP_pressure;BME280_temperature;BME280_humidity;BME280_pressure;Samples;Min_cycle;Max_cycle;Signal;HPM_P1;HPM_P2
2023/12/26 00:02:08;;;;;;;0.98;0.30;;;;;;;;;;10389015;28;20218;-77
2023/12/26 00:07:09;;;;;;;0.20;0.20;;;;;;;;;;10393475;28;20311;-78
2023/12/26 00:12:10;;;;;;;0.20;0.20;;;;;;;;;;10402939;28;20214;-78
2023/12/26 00:17:11;;;;;;;0.10;0.10;;;;;;;;;;10378713;28;20227;-80
2023/12/26 00:22:12;;;;;;;1.35;0.13;;;;;;;;;;10403320;28;21197;-77
2023/12/26 00:27:13;;;;;;;0.30;0.30;;;;;;;;;;10402807;28;20210;-79
2023/12/26 00:32:16;;;;;;;0.90;0.32;;;;;;;;;;10401469;28;20222;-78
2023/12/26 00:37:18;;;;;;;0.88;0.55;;;;;;;;;;10431350;28;20210;-80
2023/12/26 00:42:19;;;;;;;1.45;0.88;;;;;;;;;;10410526;28;20214;-77
2023/12/26 00:47:20;;;;;;;0.60;0.60;;;;;;;;;;10373070;28;20628;-77
2023/12/26 00:52:21;;;;;;;2.05;0.35;;;;;;;;;;10404499;28;20235;-76
2023/12/26 00:57:22;;;;;;;0.98;0.93;;;;;;;;;;10388925;28;20226;-78
2023/12/26 01:02:25;;;;;;;1.65;0.50;;;;;;;;;;10380338;28;20229;-76
2023/12/26 01:07:26;;;;;;;0.10;0.10;;;;;;;;;;10394495;28;20704;-77
2023/12/26 01:12:27;;;;;;;0.10;0.10;;;;;;;;;;10381358;28;20249;-78
2023/12/26 01:17:28;;;;;;;0.10;0.10;;;;;;;;;;10388609;28;20233;-77
2023/12/26 01:22:29;;;;;;;0.10;0.10;;;;;;;;;;10404068;28;20226;-77
2023/12/26 01:27:31;;;;;;;0.00;0.00;;;;;;;;;;10369225;28;20597;-78
2023/12/26 01:32:32;;;;;;;0.10;0.10;;;;;;;;;;10367166;28;20219;-78
2023/12/26 01:37:33;;;;;;;0.10;0.10;;;;;;;;;;10423112;28;20219;-78
2023/12/26 01:42:34;;;;;;;0.10;0.10;;;;;;;;;;10379105;28;20203;-77
2023/12/26 01:47:35;;;;;;;0.00;0.00;;;;;;;;;;10364087;28;20356;-77
2023/12/26 01:52:39;;;;;;;3.70;0.17;;;;;;;;;;10420801;28;20222;-75
2023/12/26 01:57:41;;;;;;;0.20;0.10;;;;;;;;;;10372490;28;1020814;-75
2023/12/26 02:02:43;;;;;;;0.00;0.00;;;;;;;;;;10389847;28;20321;-75
2023/12/26 02:07:44;;;;;;;0.00;0.00;;;;;;;;;;10383275;28;20211;-76
2023/12/26 02:12:46;;;;;;;0.03;0.03;;;;;;;;;;10369545;28;21416;-77
2023/12/26 02:17:48;;;;;;;0.00;0.00;;;;;;;;;;10374781;28;20211;-77
2023/12/26 02:22:49;;;;;;;0.00;0.00;;;;;;;;;;10406602;28;20246;-75
2023/12/26 02:27:51;;;;;;;0.00;0.00;;;;;;;;;;10389186;28;20219;-76
2023/12/26 02:32:53;;;;;;;0.00;0.00;;;;;;;;;;10381028;28;20268;-76
2023/12/26 02:37:59;;;;;;;2.28;0.00;;;;;;;;;;10405896;28;20233;-77
2023/12/26 02:43:00;;;;;;;0.00;0.00;;;;;;;;;;10393755;28;20219;-75
2023/12/26 02:48:01;;;;;;;0.00;0.00;;;;;;;;;;10390136;28;20279;-76
2023/12/26 02:53:03;;;;;;;0.00;0.00;;;;;;;;;;10374802;28;20227;-76
2023/12/26 02:58:04;;;;;;;0.00;0.00;;;;;;;;;;10379110;28;20321;-74
2023/12/26 03:03:06;;;;;;;0.00;0.00;;;;;;;;;;10346783;28;20273;-76
2023/12/26 03:08:07;;;;;;;0.00;0.00;;;;;;;;;;10331744;28;20221;-75
2023/12/26 03:13:08;;;;;;;0.00;0.00;;;;;;;;;;10348040;28;20234;-75
2023/12/26 03:18:09;;;;;;;0.00;0.00;;;;;;;;;;10356374;28;20700;-76
2023/12/26 03:23:12;;;;;;;0.00;0.00;;;;;;;;;;10340280;28;20220;-76
2023/12/26 03:28:13;;;;;;;0.00;0.00;;;;;;;;;;10353167;28;20216;-75
2023/12/26 03:33:14;;;;;;;0.00;0.00;;;;;;;;;;10329734;28;21846;-77
2023/12/26 03:38:15;;;;;;;0.00;0.00;;;;;;;;;;10347405;28;20973;-75
2023/12/26 03:43:16;;;;;;;0.00;0.00;;;;;;;;;;10363473;28;20768;-76
2023/12/26 03:48:18;;;;;;;0.00;0.00;;;;;;;;;;10349638;28;20276;-74
2023/12/26 03:53:19;;;;;;;0.00;0.00;;;;;;;;;;10333445;28;20219;-76
2023/12/26 03:58:20;;;;;;;0.00;0.00;;;;;;;;;;10374801;28;20279;-75
2023/12/26 04:03:21;;;;;;;0.00;0.00;;;;;;;;;;10370031;28;20221;-77
2023/12/26 04:08:22;;;;;;;0.57;0.00;;;;;;;;;;10374078;28;20230;-76
2023/12/26 04:13:23;;;;;;;0.00;0.00;;;;;;;;;;10374193;28;20214;-76
2023/12/26 04:18:24;;;;;;;0.00;0.00;;;;;;;;;;10360123;28;20211;-75
2023/12/26 04:23:25;;;;;;;0.60;0.05;;;;;;;;;;10373870;28;20210;-77
2023/12/26 04:28:26;;;;;;;0.00;0.00;;;;;;;;;;10389001;28;20356;-77
2023/12/26 04:33:28;;;;;;;0.00;0.00;;;;;;;;;;10379294;28;20217;-75
2023/12/26 04:38:29;;;;;;;0.10;0.10;;;;;;;;;;10364848;28;20482;-77
2023/12/26 04:43:30;;;;;;;0.00;0.00;;;;;;;;;;10389400;28;20225;-77
2023/12/26 04:48:31;;;;;;;0.10;0.10;;;;;;;;;;10369038;28;20593;-75
2023/12/26 04:53:32;;;;;;;0.10;0.10;;;;;;;;;;10378571;28;20229;-76
2023/12/26 04:58:34;;;;;;;0.00;0.00;;;;;;;;;;10402737;28;20842;-76
2023/12/26 05:03:35;;;;;;;0.00;0.00;;;;;;;;;;10354065;28;20722;-76
2023/12/26 05:08:39;;;;;;;0.00;0.00;;;;;;;;;;10363317;28;20222;-75
2023/12/26 05:13:41;;;;;;;0.30;0.00;;;;;;;;;;10365582;28;20222;-74
2023/12/26 05:18:42;;;;;;;0.10;0.10;;;;;;;;;;10406543;28;20222;-77
2023/12/26 05:23:43;;;;;;;0.00;0.00;;;;;;;;;;10387393;28;20210;-75
2023/12/26 05:28:44;;;;;;;0.10;0.10;;;;;;;;;;10376405;28;20884;-75
2023/12/26 05:33:46;;;;;;;0.10;0.10;;;;;;;;;;10385689;28;20300;-76
2023/12/26 05:38:47;;;;;;;0.00;0.00;;;;;;;;;;10391383;28;20218;-75
2023/12/26 05:43:49;;;;;;;0.00;0.00;;;;;;;;;;10361829;28;20214;-76
2023/12/26 05:48:50;;;;;;;0.00;0.00;;;;;;;;;;10393979;28;20363;-76
2023/12/26 05:53:51;;;;;;;0.10;0.10;;;;;;;;;;10380713;28;20267;-76
2023/12/26 05:58:52;;;;;;;0.00;0.00;;;;;;;;;;10388328;28;20665;-76
2023/12/26 06:03:54;;;;;;;0.00;0.00;;;;;;;;;;10384734;28;20301;-76
2023/12/26 06:08:55;;;;;;;0.00;0.00;;;;;;;;;;10376595;28;20314;-75
2023/12/26 06:13:57;;;;;;;0.75;0.10;;;;;;;;;;10362461;28;20218;-74
2023/12/26 06:18:58;;;;;;;0.20;0.10;;;;;;;;;;10385030;28;20294;-77
2023/12/26 06:23:59;;;;;;;0.63;0.10;;;;;;;;;;10404239;28;20221;-75
2023/12/26 06:29:00;;;;;;;0.10;0.10;;;;;;;;;;10387576;28;20226;-76
2023/12/26 06:34:02;;;;;;;0.10;0.10;;;;;;;;;;10381452;28;20211;-77
2023/12/26 06:39:04;;;;;;;0.73;0.10;;;;;;;;;;10378931;28;20249;-77
2023/12/26 06:44:05;;;;;;;0.20;0.20;;;;;;;;;;10391795;28;20650;-76
2023/12/26 06:49:08;;;;;;;0.10;0.10;;;;;;;;;;10380536;28;20696;-76
2023/12/26 06:54:10;;;;;;;0.20;0.20;;;;;;;;;;10383552;28;20302;-78
2023/12/26 06:59:11;;;;;;;1.08;0.20;;;;;;;;;;10367794;28;20215;-74
2023/12/26 07:04:13;;;;;;;1.40;0.20;;;;;;;;;;10381915;28;20246;-77
2023/12/26 07:09:14;;;;;;;0.20;0.20;;;;;;;;;;10388516;28;20650;-76
2023/12/26 07:14:15;;;;;;;1.45;0.20;;;;;;;;;;10389075;28;20239;-77
2023/12/26 07:19:16;;;;;;;0.15;0.15;;;;;;;;;;10383453;28;20225;-75
2023/12/26 07:24:17;;;;;;;1.15;0.10;;;;;;;;;;10404861;28;20333;-76
2023/12/26 07:29:18;;;;;;;1.10;0.20;;;;;;;;;;10367137;28;20226;-77
2023/12/26 07:34:19;;;;;;;0.20;0.20;;;;;;;;;;10379496;28;20230;-76
2023/12/26 07:39:20;;;;;;;0.50;0.40;;;;;;;;;;10381540;28;20218;-75
2023/12/26 07:44:21;;;;;;;2.15;0.30;;;;;;;;;;10384096;28;20246;-78
2023/12/26 07:49:22;;;;;;;0.20;0.20;;;;;;;;;;10370330;28;20222;-78
2023/12/26 07:54:25;;;;;;;0.35;0.28;;;;;;;;;;10401143;28;20214;-78
2023/12/26 07:59:26;;;;;;;0.28;0.28;;;;;;;;;;10389994;28;20598;-77
2023/12/26 08:04:27;;;;;;;1.85;0.20;;;;;;;;;;10360443;28;20222;-76
2023/12/26 08:09:28;;;;;;;0.73;0.25;;;;;;;;;;10379501;28;20214;-75
2023/12/26 08:14:29;;;;;;;0.30;0.30;;;;;;;;;;10389977;28;20881;-77
2023/12/26 08:19:31;;;;;;;0.17;0.17;;;;;;;;;;10411680;28;20218;-75
2023/12/26 08:24:32;;;;;;;1.20;0.40;;;;;;;;;;10379779;28;20572;-76
2023/12/26 08:29:33;;;;;;;0.52;0.50;;;;;;;;;;10385848;28;20218;-76
2023/12/26 08:34:34;;;;;;;0.20;0.20;;;;;;;;;;10419452;28;20230;-75
2023/12/26 08:39:35;;;;;;;1.45;0.30;;;;;;;;;;10368973;28;20218;-75
2023/12/26 08:44:36;;;;;;;1.35;0.40;;;;;;;;;;10381024;28;20261;-75
2023/12/26 08:49:37;;;;;;;0.82;0.20;;;;;;;;;;10392363;28;20221;-74
2023/12/26 08:54:38;;;;;;;1.83;0.30;;;;;;;;;;10374428;28;20663;-75
2023/12/26 08:59:39;;;;;;;0.63;0.20;;;;;;;;;;10402821;28;20226;-75
2023/12/26 09:04:40;;;;;;;2.42;0.35;;;;;;;;;;10394342;28;20214;-76
2023/12/26 09:09:41;;;;;;;0.10;0.10;;;;;;;;;;10387138;28;20701;-75
2023/12/26 09:14:42;;;;;;;0.10;0.10;;;;;;;;;;10383059;28;20611;-74
2023/12/26 09:19:43;;;;;;;2.60;0.22;;;;;;;;;;10398041;28;20242;-75
2023/12/26 09:24:44;;;;;;;1.35;0.22;;;;;;;;;;10362416;28;20207;-74
2023/12/26 09:29:45;;;;;;;2.40;0.40;;;;;;;;;;10396920;28;20221;-77
2023/12/26 09:34:46;;;;;;;1.27;0.30;;;;;;;;;;10383748;28;20222;-78
2023/12/26 09:39:47;;;;;;;0.75;0.20;;;;;;;;;;10381947;28;20222;-77
2023/12/26 09:44:49;;;;;;;1.20;0.30;;;;;;;;;;10396509;28;20669;-76
2023/12/26 09:49:50;;;;;;;3.53;0.50;;;;;;;;;;10406282;28;20229;-79
2023/12/26 09:54:51;;;;;;;1.30;0.50;;;;;;;;;;10391274;28;20794;-78
2023/12/26 09:59:53;;;;;;;1.17;0.73;;;;;;;;;;10372912;28;20892;-77
2023/12/26 10:04:54;;;;;;;8.38;0.40;;;;;;;;;;10388455;28;20600;-78
2023/12/26 10:09:55;;;;;;;1.60;0.30;;;;;;;;;;10369962;28;20309;-76
2023/12/26 10:15:00;;;;;;;1.42;0.60;;;;;;;;;;10390084;28;20279;-79
2023/12/26 10:20:03;;;;;;;0.68;0.35;;;;;;;;;;10396725;28;20207;-78
2023/12/26 10:25:04;;;;;;;0.32;0.22;;;;;;;;;;10403232;28;20203;-77
2023/12/26 10:30:06;;;;;;;1.05;0.75;;;;;;;;;;10381717;28;20211;-77
2023/12/26 10:35:17;;;;;;;0.52;0.20;;;;;;;;;;10375226;28;20756;-76
2023/12/26 10:40:18;;;;;;;1.23;0.60;;;;;;;;;;10359303;28;20297;-77
2023/12/26 10:45:19;;;;;;;1.55;0.40;;;;;;;;;;10372634;28;21209;-77
2023/12/26 10:50:21;;;;;;;1.55;0.43;;;;;;;;;;10359297;28;20256;-77
2023/12/26 10:55:22;;;;;;;1.00;0.57;;;;;;;;;;10386960;28;20210;-77
2023/12/26 11:00:23;;;;;;;1.50;0.43;;;;;;;;;;10372933;28;20226;-80
2023/12/26 11:05:25;;;;;;;1.27;0.30;;;;;;;;;;10375075;28;20206;-76
2023/12/26 11:10:25;;;;;;;2.47;0.30;;;;;;;;;;10399246;28;20301;-76
2023/12/26 11:15:26;;;;;;;2.72;0.30;;;;;;;;;;10370207;28;20215;-78
2023/12/26 11:20:28;;;;;;;1.15;0.35;;;;;;;;;;10362250;28;20223;-77
2023/12/26 11:25:29;;;;;;;1.52;0.40;;;;;;;;;;10384722;28;20224;-76
2023/12/26 11:30:31;;;;;;;2.90;0.40;;;;;;;;;;10376541;28;20215;-76
2023/12/26 11:35:32;;;;;;;3.33;0.30;;;;;;;;;;10369381;28;20653;-78
2023/12/26 11:40:33;;;;;;;1.00;0.30;;;;;;;;;;10376442;28;20276;-76
2023/12/26 11:45:34;;;;;;;2.55;0.20;;;;;;;;;;10350040;28;20708;-76
2023/12/26 11:50:35;;;;;;;2.70;0.30;;;;;;;;;;10393845;28;20214;-75
2023/12/26 11:55:36;;;;;;;0.57;0.43;;;;;;;;;;10399369;28;20214;-75
2023/12/26 12:00:37;;;;;;;0.20;0.20;;;;;;;;;;10337439;28;20234;-77
2023/12/26 12:05:38;;;;;;;2.00;0.45;;;;;;;;;;10337601;28;20241;-75
2023/12/26 12:10:59;;;;;;;0.40;0.20;;;;;;;;;;10364167;28;20208;-75
2023/12/26 12:16:00;;;;;;;0.50;0.40;;;;;;;;;;10359253;28;20218;-74
2023/12/26 12:21:01;;;;;;;1.77;0.20;;;;;;;;;;10327276;28;20211;-76
2023/12/26 12:26:03;;;;;;;2.85;0.30;;;;;;;;;;10356052;28;20215;-78
2023/12/26 12:31:13;;;;;;;0.32;0.22;;;;;;;;;;10338009;28;20779;-75
2023/12/26 12:36:15;;;;;;;4.85;0.38;;;;;;;;;;10358350;28;20280;-79
2023/12/26 12:41:16;;;;;;;3.17;0.45;;;;;;;;;;10338697;28;20219;-78
2023/12/26 12:46:17;;;;;;;3.00;0.40;;;;;;;;;;10351778;28;20227;-76
2023/12/26 12:51:18;;;;;;;1.65;0.30;;;;;;;;;;10348916;28;20241;-76
2023/12/26 12:56:19;;;;;;;0.80;0.40;;;;;;;;;;10342729;28;20243;-74
2023/12/26 13:01:20;;;;;;;3.30;0.30;;;;;;;;;;10393358;28;20747;-75
2023/12/26 13:06:21;;;;;;;3.22;0.40;;;;;;;;;;10406101;28;20217;-74
2023/12/26 13:11:22;;;;;;;0.65;0.38;;;;;;;;;;10381960;28;20727;-76
2023/12/26 13:16:24;;;;;;;2.95;0.32;;;;;;;;;;10388721;28;20215;-72
2023/12/26 13:21:25;;;;;;;3.05;0.50;;;;;;;;;;10392461;28;20301;-73
2023/12/26 13:26:26;;;;;;;0.85;0.35;;;;;;;;;;10392259;28;20207;-72
2023/12/26 13:31:27;;;;;;;1.85;0.30;;;;;;;;;;10394900;28;20294;-72
2023/12/26 13:36:28;;;;;;;0.75;0.30;;;;;;;;;;10380607;28;20218;-75
2023/12/26 13:41:29;;;;;;;2.10;0.52;;;;;;;;;;10400210;28;20244;-73
2023/12/26 13:46:30;;;;;;;3.08;0.60;;;;;;;;;;10385948;28;20214;-75
2023/12/26 13:51:31;;;;;;;3.40;0.60;;;;;;;;;;10387687;28;20713;-76
2023/12/26 13:56:32;;;;;;;1.10;0.45;;;;;;;;;;10398410;28;20696;-75
2023/12/26 14:01:33;;;;;;;3.67;0.30;;;;;;;;;;10355970;28;20737;-76
2023/12/26 14:06:35;;;;;;;2.67;0.40;;;;;;;;;;10346824;28;20311;-75
2023/12/26 14:11:36;;;;;;;1.67;0.50;;;;;;;;;;10370046;28;20243;-74
2023/12/26 14:16:37;;;;;;;4.32;0.70;;;;;;;;;;10327478;28;20209;-74
2023/12/26 14:21:37;;;;;;;1.23;0.30;;;;;;;;;;10355625;28;20223;-74
2023/12/26 14:26:39;;;;;;;2.22;0.38;;;;;;;;;;10333199;28;20216;-75
2023/12/26 14:31:39;;;;;;;2.42;0.40;;;;;;;;;;10336600;28;20207;-73
2023/12/26 14:36:40;;;;;;;4.38;0.60;;;;;;;;;;10332147;28;20849;-74
2023/12/26 14:41:41;;;;;;;3.47;0.47;;;;;;;;;;10373021;28;20780;-78
2023/12/26 14:46:42;;;;;;;1.88;0.50;;;;;;;;;;10363880;28;20720;-75
2023/12/26 14:51:43;;;;;;;1.55;0.50;;;;;;;;;;10356273;28;20263;-74
2023/12/26 14:56:44;;;;;;;1.05;0.47;;;;;;;;;;10343251;28;20311;-75
2023/12/26 15:01:45;;;;;;;0.85;0.38;;;;;;;;;;10363486;28;20316;-75
2023/12/26 15:06:46;;;;;;;1.95;0.70;;;;;;;;;;10337684;28;20219;-76
2023/12/26 15:11:47;;;;;;;2.38;0.57;;;;;;;;;;10336306;28;20210;-76
2023/12/26 15:16:48;;;;;;;2.10;0.50;;;;;;;;;;10331396;28;20223;-75
2023/12/26 15:21:49;;;;;;;1.60;0.40;;;;;;;;;;10322312;28;20855;-75
2023/12/26 15:26:51;;;;;;;1.13;0.40;;;;;;;;;;10334359;28;20215;-77
2023/12/26 15:31:52;;;;;;;1.15;0.30;;;;;;;;;;10361079;28;20672;-74
2023/12/26 15:36:53;;;;;;;3.85;0.50;;;;;;;;;;10321602;28;20284;-78
2023/12/26 15:41:54;;;;;;;0.20;0.20;;;;;;;;;;10330725;28;20272;-78
2023/12/26 15:46:55;;;;;;;1.55;0.40;;;;;;;;;;10342949;28;20216;-77
2023/12/26 15:51:56;;;;;;;0.85;0.30;;;;;;;;;;10322880;28;20215;-76
2023/12/26 15:56:57;;;;;;;3.25;0.35;;;;;;;;;;10330662;28;20223;-78
2023/12/26 16:01:58;;;;;;;0.63;0.30;;;;;;;;;;10319171;28;20211;-76
2023/12/26 16:06:59;;;;;;;2.67;0.40;;;;;;;;;;10299546;28;20211;-76
2023/12/26 16:12:00;;;;;;;2.05;0.55;;;;;;;;;;10354048;28;20223;-74
2023/12/26 16:17:01;;;;;;;4.20;0.60;;;;;;;;;;10323869;28;20204;-75
2023/12/26 16:22:02;;;;;;;1.40;0.50;;;;;;;;;;10342285;28;20207;-75
2023/12/26 16:27:03;;;;;;;3.50;0.40;;;;;;;;;;10360622;28;20246;-75
2023/12/26 16:32:05;;;;;;;4.57;0.60;;;;;;;;;;10339936;28;20203;-75
2023/12/26 16:37:06;;;;;;;2.45;0.43;;;;;;;;;;10337563;28;20715;-76
2023/12/26 16:42:11;;;;;;;1.13;0.50;;;;;;;;;;10318500;28;20211;-74
2023/12/26 16:47:12;;;;;;;2.30;0.40;;;;;;;;;;10343112;28;20246;-76
2023/12/26 16:52:13;;;;;;;0.65;0.22;;;;;;;;;;10292385;28;20223;-77
2023/12/26 16:57:14;;;;;;;1.20;0.60;;;;;;;;;;10305661;28;20723;-78
2023/12/26 17:02:15;;;;;;;1.60;0.77;;;;;;;;;;10360702;28;20215;-77
2023/12/26 17:07:17;;;;;;;4.03;0.60;;;;;;;;;;10331996;28;20207;-78
2023/12/26 17:12:19;;;;;;;1.55;0.32;;;;;;;;;;10323821;28;20222;-78
2023/12/26 17:17:20;;;;;;;3.13;0.30;;;;;;;;;;10339371;28;20234;-78
2023/12/26 17:22:23;;;;;;;4.40;0.20;;;;;;;;;;10321124;28;20697;-76
2023/12/26 17:27:25;;;;;;;3.05;0.40;;;;;;;;;;10331603;28;20320;-78
2023/12/26 17:32:26;;;;;;;0.60;0.38;;;;;;;;;;10336507;28;20218;-77
2023/12/26 17:37:27;;;;;;;2.42;0.40;;;;;;;;;;10327321;28;20343;-78
2023/12/26 17:42:28;;;;;;;3.45;0.40;;;;;;;;;;10363040;28;20243;-76
2023/12/26 17:47:29;;;;;;;3.20;0.40;;;;;;;;;;10360002;28;20215;-76
2023/12/26 17:52:30;;;;;;;2.03;0.50;;;;;;;;;;10355632;28;21553;-76
2023/12/26 17:57:31;;;;;;;1.25;0.30;;;;;;;;;;10335723;28;20231;-76
2023/12/26 18:02:32;;;;;;;1.48;0.40;;;;;;;;;;10391725;28;20298;-77
2023/12/26 18:07:33;;;;;;;3.08;0.70;;;;;;;;;;10366887;28;20229;-77
2023/12/26 18:12:35;;;;;;;3.10;0.47;;;;;;;;;;10372049;28;20759;-75
2023/12/26 18:17:37;;;;;;;1.85;0.40;;;;;;;;;;10395420;28;20219;-78
2023/12/26 18:22:38;;;;;;;0.90;0.50;;;;;;;;;;10369870;28;20301;-77
2023/12/26 18:27:39;;;;;;;0.70;0.70;;;;;;;;;;10359963;28;20242;-77
2023/12/26 18:32:41;;;;;;;2.58;0.35;;;;;;;;;;10392161;28;20839;-79
2023/12/26 18:37:41;;;;;;;0.63;0.60;;;;;;;;;;10400677;28;20261;-77
2023/12/26 18:42:42;;;;;;;0.50;0.50;;;;;;;;;;10377999;28;20276;-75
2023/12/26 18:47:44;;;;;;;0.55;0.38;;;;;;;;;;10380251;28;20215;-75
2023/12/26 18:52:44;;;;;;;2.55;0.40;;;;;;;;;;10368299;28;20199;-75
2023/12/26 18:57:45;;;;;;;2.67;0.30;;;;;;;;;;10370811;28;20264;-77
2023/12/26 19:02:47;;;;;;;2.50;0.55;;;;;;;;;;10373609;28;20215;-78
2023/12/26 19:07:48;;;;;;;1.02;0.90;;;;;;;;;;10388140;28;20206;-77
2023/12/26 19:12:50;;;;;;;7.10;1.55;;;;;;;;;;10380658;28;20211;-75
2023/12/26 19:17:51;;;;;;;0.95;0.95;;;;;;;;;;10390584;28;20391;-77
2023/12/26 19:22:53;;;;;;;0.50;0.30;;;;;;;;;;10363763;28;20223;-77
2023/12/26 19:27:55;;;;;;;2.22;0.70;;;;;;;;;;10384025;28;20243;-76
2023/12/26 19:32:56;;;;;;;1.08;0.80;;;;;;;;;;10393678;28;20213;-79
2023/12/26 19:37:57;;;;;;;3.58;1.45;;;;;;;;;;10384301;28;20219;-76
2023/12/26 19:42:58;;;;;;;1.05;0.50;;;;;;;;;;10358486;28;20619;-77
2023/12/26 19:47:59;;;;;;;1.70;0.20;;;;;;;;;;10364313;28;20217;-76
2023/12/26 19:53:00;;;;;;;0.20;0.20;;;;;;;;;;10392466;28;20524;-76
2023/12/26 19:58:01;;;;;;;0.88;0.20;;;;;;;;;;10381697;28;20222;-76
2023/12/26 20:03:02;;;;;;;0.73;0.30;;;;;;;;;;10371617;28;20306;-76
2023/12/26 20:08:04;;;;;;;1.02;0.20;;;;;;;;;;10410074;28;20297;-76
2023/12/26 20:13:05;;;;;;;0.10;0.10;;;;;;;;;;10343285;28;20630;-76
2023/12/26 20:18:06;;;;;;;2.35;0.20;;;;;;;;;;10345672;28;20309;-76
2023/12/26 20:23:08;;;;;;;3.03;0.30;;;;;;;;;;10362550;28;20179;-77
2023/12/26 20:28:09;;;;;;;0.80;0.30;;;;;;;;;;10358756;28;20308;-73
2023/12/26 20:33:10;;;;;;;0.55;0.20;;;;;;;;;;10373869;28;20286;-78
2023/12/26 20:38:11;;;;;;;2.45;0.82;;;;;;;;;;10408005;28;20558;-76
2023/12/26 20:43:12;;;;;;;0.20;0.20;;;;;;;;;;10363054;28;20206;-74
2023/12/26 20:48:15;;;;;;;0.20;0.20;;;;;;;;;;10368963;28;20249;-74
2023/12/26 20:53:16;;;;;;;0.52;0.15;;;;;;;;;;10357357;28;20231;-75
2023/12/26 20:58:17;;;;;;;2.47;0.20;;;;;;;;;;10381877;28;20276;-75
2023/12/26 21:03:18;;;;;;;1.50;0.20;;;;;;;;;;10328074;28;22390;-75
2023/12/26 21:08:20;;;;;;;1.70;0.28;;;;;;;;;;10359250;28;20217;-76
2023/12/26 21:13:22;;;;;;;4.25;0.15;;;;;;;;;;10352654;28;20218;-76
2023/12/26 21:18:23;;;;;;;1.15;0.30;;;;;;;;;;10343271;28;20224;-76
2023/12/26 21:23:24;;;;;;;2.47;0.50;;;;;;;;;;10353749;28;20238;-77
2023/12/26 21:28:25;;;;;;;0.95;0.17;;;;;;;;;;10348870;28;20222;-75
2023/12/26 21:33:26;;;;;;;0.20;0.20;;;;;;;;;;10334554;28;20218;-74
2023/12/26 21:38:27;;;;;;;5.53;0.22;;;;;;;;;;10360803;28;20228;-76
2023/12/26 21:43:28;;;;;;;0.63;0.28;;;;;;;;;;10358792;28;20216;-77
2023/12/26 21:48:29;;;;;;;0.45;0.20;;;;;;;;;;10354015;28;20215;-76
2023/12/26 21:53:30;;;;;;;0.57;0.20;;;;;;;;;;10347268;28;20211;-76
2023/12/26 21:58:31;;;;;;;3.13;0.20;;;;;;;;;;10344004;28;20223;-75
2023/12/26 22:03:32;;;;;;;0.73;0.30;;;;;;;;;;10345831;28;20215;-76
2023/12/26 22:08:33;;;;;;;1.92;0.30;;;;;;;;;;10372018;28;20231;-74
2023/12/26 22:13:35;;;;;;;0.30;0.20;;;;;;;;;;10374697;28;20298;-75
2023/12/26 22:18:36;;;;;;;2.58;0.43;;;;;;;;;;10339557;28;20592;-76
2023/12/26 22:23:37;;;;;;;2.42;0.38;;;;;;;;;;10373999;28;20208;-78
2023/12/26 22:28:38;;;;;;;3.10;0.30;;;;;;;;;;10362548;28;20227;-75
2023/12/26 22:33:39;;;;;;;1.75;0.57;;;;;;;;;;10378144;28;20218;-76
2023/12/26 22:38:40;;;;;;;2.78;0.43;;;;;;;;;;10379181;28;20230;-76
2023/12/26 22:43:41;;;;;;;3.15;0.30;;;;;;;;;;10363569;28;20216;-76
2023/12/26 22:48:42;;;;;;;5.68;0.40;;;;;;;;;;10351461;28;20688;-77
2023/12/26 22:53:43;;;;;;;4.13;0.40;;;;;;;;;;10393316;28;20269;-77
2023/12/26 22:58:44;;;;;;;1.40;0.20;;;;;;;;;;10378371;28;20288;-76
2023/12/26 23:03:45;;;;;;;0.30;0.20;;;;;;;;;;10374609;28;20265;-77
2023/12/26 23:08:46;;;;;;;1.70;0.28;;;;;;;;;;10377591;28;20215;-74
2023/12/26 23:13:49;;;;;;;1.98;0.25;;;;;;;;;;10367350;28;20580;-75
2023/12/26 23:18:50;;;;;;;2.75;0.30;;;;;;;;;;10393293;28;20748;-77
2023/12/26 23:23:51;;;;;;;1.52;0.20;;;;;;;;;;10380286;28;20210;-76
2023/12/26 23:28:52;;;;;;;1.75;0.20;;;;;;;;;;10358586;28;20246;-76
2023/12/26 23:33:53;;;;;;;2.80;0.47;;;;;;;;;;10376957;28;20211;-75
2023/12/26 23:38:54;;;;;;;0.20;0.20;;;;;;;;;;10359908;28;20245;-75
2023/12/26 23:43:55;;;;;;;2.45;0.35;;;;;;;;;;10356223;28;20210;-73
2023/12/26 23:48:56;;;;;;;0.93;0.40;;;;;;;;;;10383826;28;20234;-75
2023/12/26 23:53:57;;;;;;;2.80;0.22;;;;;;;;;;10353002;28;20219;-74
2023/12/26 23:58:58;;;;;;;0.85;0.30;;;;;;;;;;10402279;28;20233;-74
